createdAt,value
2019-04-21T00:02:32.514Z,73.10
2019-04-21T00:05:24.740Z,73.10
2019-04-21T00:07:50.741Z,73.20
2019-04-21T00:10:27.007Z,73.10
2019-04-21T00:12:56.224Z,73.10
2019-04-21T00:15:27.641Z,73.30
2019-04-21T00:17:57.053Z,73.30
2019-04-21T00:20:44.194Z,73.60
2019-04-21T00:23:24.297Z,73.70
2019-04-21T00:25:59.136Z,73.90
2019-04-21T00:28:42.804Z,74.20
2019-04-21T00:31:12.627Z,74.20
2019-04-21T00:33:28.859Z,74.20
2019-04-21T00:36:05.338Z,74.50
2019-04-21T00:39:09.968Z,74.30
2019-04-21T00:41:29.605Z,74.30
2019-04-21T00:43:55.736Z,74.50
2019-04-21T00:46:31.166Z,74.50
2019-04-21T00:51:51.115Z,74.50
2019-04-21T00:54:20.616Z,74.40
2019-04-21T00:56:56.237Z,74.50
2019-04-21T00:59:25.655Z,74.60
2019-04-21T01:01:58.272Z,74.80
2019-04-21T01:04:33.797Z,74.90
2019-04-21T01:07:07.181Z,74.90
2019-04-21T01:09:31.709Z,75.00
2019-04-21T01:12:14.830Z,75.20
2019-04-21T01:15:13.440Z,75.20
2019-04-21T01:17:38.297Z,75.10
2019-04-21T01:20:03.970Z,75.30
2019-04-21T01:22:24.988Z,75.30
2019-04-21T01:25:04.575Z,75.30
2019-04-21T01:27:52.121Z,75.40
2019-04-21T01:30:23.736Z,75.90
2019-04-21T01:32:59.503Z,75.90
2019-04-21T01:35:35.010Z,75.80
2019-04-21T01:38:02.010Z,75.90
2019-04-21T01:40:43.335Z,75.90
2019-04-21T01:45:34.230Z,75.80
2019-04-21T01:48:05.157Z,76.00
2019-04-21T01:50:41.132Z,76.10
2019-04-21T01:53:30.705Z,76.00
2019-04-21T01:56:16.924Z,76.00
2019-04-21T01:58:42.915Z,76.00
2019-04-21T02:01:27.052Z,75.80
2019-04-21T02:03:58.264Z,76.00
2019-04-21T02:06:45.682Z,76.40
2019-04-21T02:09:06.818Z,76.50
2019-04-21T02:11:37.318Z,76.70
2019-04-21T02:14:19.601Z,77.00
2019-04-21T02:16:49.598Z,77.20
2019-04-21T02:19:13.764Z,77.30
2019-04-21T02:21:43.505Z,77.50
2019-04-21T02:24:35.154Z,77.50
2019-04-21T02:27:01.709Z,77.70
2019-04-21T02:29:34.784Z,77.70
2019-04-21T02:32:14.810Z,77.90
2019-04-21T02:40:08.412Z,78.10
2019-04-21T02:42:32.964Z,78.10
2019-04-21T02:45:00.354Z,78.30
2019-04-21T02:47:56.901Z,78.20
2019-04-21T02:50:31.523Z,78.70
2019-04-21T02:52:43.938Z,79.00
2019-04-21T02:55:19.459Z,78.90
2019-04-21T02:57:59.585Z,78.70
2019-04-21T03:03:25.698Z,78.60
2019-04-21T03:05:51.168Z,78.60
2019-04-21T03:08:34.253Z,78.60
2019-04-21T03:10:59.287Z,78.50
2019-04-21T03:16:23.023Z,78.60
2019-04-21T03:21:38.618Z,78.70
2019-04-21T03:24:09.501Z,78.70
2019-04-21T03:27:01.511Z,78.70
2019-04-21T03:29:22.394Z,79.00
2019-04-21T03:32:13.979Z,79.10
2019-04-21T03:39:36.643Z,79.00
2019-04-21T03:42:19.594Z,79.10
2019-04-21T03:47:15.413Z,79.30
2019-04-21T03:49:47.429Z,79.30
2019-04-21T03:52:27.800Z,79.40
2019-04-21T03:55:44.881Z,79.40
2019-04-21T03:58:04.799Z,79.70
2019-04-21T04:00:42.455Z,79.90
2019-04-21T04:03:32.371Z,80.00
2019-04-21T04:11:19.689Z,79.80
2019-04-21T04:13:55.605Z,79.60
2019-04-21T04:16:52.178Z,79.70
2019-04-21T04:24:13.353Z,79.60
2019-04-21T04:26:57.399Z,79.60
2019-04-21T04:29:24.189Z,79.70
2019-04-21T04:32:00.739Z,79.60
2019-04-21T04:34:40.541Z,80.30
2019-04-21T04:37:12.334Z,80.70
2019-04-21T04:39:50.142Z,80.80
2019-04-21T04:42:27.069Z,80.30
2019-04-21T04:47:32.514Z,80.10
2019-04-21T04:52:34.254Z,80.00
2019-04-21T04:57:49.073Z,79.80
2019-04-21T05:00:19.875Z,79.50
2019-04-21T05:02:46.370Z,78.90
2019-04-21T05:05:19.454Z,78.70
2019-04-21T05:07:57.888Z,78.50
2019-04-21T05:10:31.469Z,78.50
2019-04-21T05:12:53.123Z,78.80
2019-04-21T05:15:42.200Z,78.30
2019-04-21T05:20:29.880Z,77.50
2019-04-21T05:23:02.031Z,76.80
2019-04-21T05:25:23.704Z,76.30
2019-04-21T05:27:57.807Z,75.30
2019-04-21T05:30:58.379Z,74.90
2019-04-21T05:33:27.673Z,74.40
2019-04-21T05:36:15.690Z,73.40
2019-04-21T05:38:47.692Z,72.60
2019-04-21T05:41:17.532Z,71.80
2019-04-21T05:43:57.503Z,70.90
2019-04-21T05:46:32.288Z,71.20
2019-04-21T05:49:03.473Z,70.80
2019-04-21T05:51:35.332Z,69.50
2019-04-21T05:54:52.939Z,69.00
2019-04-21T05:57:05.800Z,67.80
2019-04-21T05:59:41.772Z,67.60
2019-04-21T06:09:57.311Z,65.60
2019-04-21T06:12:29.762Z,65.70
2019-04-21T06:15:00.941Z,65.30
2019-04-21T06:20:35.342Z,64.30
2019-04-21T06:23:03.443Z,64.30
2019-04-21T06:25:48.670Z,64.40
2019-04-21T06:28:15.761Z,62.70
2019-04-21T06:30:48.632Z,62.80
2019-04-21T06:33:19.660Z,62.10
2019-04-21T06:38:54.391Z,61.30
2019-04-21T06:41:28.125Z,60.30
2019-04-21T06:44:01.461Z,60.10
2019-04-21T06:46:35.543Z,59.80
2019-04-21T06:49:03.728Z,59.90
2019-04-21T06:51:42.377Z,59.70
2019-04-21T06:54:17.473Z,60.20
2019-04-21T06:57:00.686Z,59.70
2019-04-21T06:59:13.444Z,60.60
2019-04-21T07:02:13.400Z,59.30
2019-04-21T07:04:39.566Z,59.50
2019-04-21T07:07:08.316Z,58.60
2019-04-21T07:09:45.471Z,57.30
2019-04-21T07:12:13.901Z,57.70
2019-04-21T07:14:49.482Z,57.60
2019-04-21T07:20:12.165Z,57.40
2019-04-21T07:25:28.415Z,56.00
2019-04-21T07:28:02.992Z,55.80
2019-04-21T07:33:32.917Z,54.30
2019-04-21T07:35:43.204Z,55.60
2019-04-21T07:38:16.750Z,55.50
2019-04-21T07:40:45.762Z,55.80
2019-04-21T07:43:24.636Z,55.90
2019-04-21T07:45:58.136Z,55.70
2019-04-21T07:48:43.257Z,55.40
2019-04-21T07:51:25.349Z,54.10
2019-04-21T07:54:06.305Z,53.60
2019-04-21T07:56:19.134Z,53.90
2019-04-21T08:01:50.723Z,52.80
2019-04-21T08:04:33.511Z,51.80
2019-04-21T08:06:46.498Z,52.40
2019-04-21T08:09:12.105Z,52.60
2019-04-21T08:11:44.192Z,52.90
2019-04-21T08:14:24.311Z,51.90
2019-04-21T08:16:57.707Z,52.60
2019-04-21T08:19:26.242Z,51.60
2019-04-21T08:22:09.470Z,51.80
2019-04-21T08:24:37.583Z,51.60
2019-04-21T08:27:14.179Z,50.70
2019-04-21T08:29:46.240Z,50.90
2019-04-21T08:32:31.717Z,50.80
2019-04-21T08:35:09.504Z,51.10
2019-04-21T08:37:24.180Z,50.70
2019-04-21T08:40:09.389Z,50.50
2019-04-21T08:42:43.239Z,48.80
2019-04-21T08:45:25.457Z,49.60
2019-04-21T08:50:25.354Z,49.40
2019-04-21T08:55:40.000Z,49.00
2019-04-21T08:58:41.434Z,49.30
2019-04-21T09:01:23.816Z,49.00
2019-04-21T09:06:58.956Z,48.40
2019-04-21T09:14:28.754Z,48.50
2019-04-21T09:16:57.753Z,47.80
2019-04-21T09:19:44.296Z,47.60
2019-04-21T09:22:07.125Z,47.60
2019-04-21T09:24:42.807Z,47.30
2019-04-21T09:27:08.375Z,47.20
2019-04-21T09:29:30.946Z,47.50
2019-04-21T09:32:01.428Z,46.80
2019-04-21T09:34:40.038Z,46.20
2019-04-21T09:37:23.565Z,46.60
2019-04-21T09:39:48.076Z,47.20
2019-04-21T09:42:16.756Z,46.50
2019-04-21T09:44:55.217Z,46.20
2019-04-21T09:47:33.611Z,45.30
2019-04-21T09:50:02.755Z,46.00
2019-04-21T09:55:13.465Z,45.20
2019-04-21T10:00:21.101Z,44.60
2019-04-21T10:02:56.686Z,45.40
2019-04-21T10:05:25.203Z,44.60
2019-04-21T10:07:58.265Z,45.00
2019-04-21T10:10:29.742Z,45.30
2019-04-21T10:13:03.004Z,44.70
2019-04-21T10:15:35.420Z,43.60
2019-04-21T10:18:17.244Z,44.30
2019-04-21T10:20:51.267Z,43.60
2019-04-21T10:23:21.247Z,43.10
2019-04-21T10:28:37.174Z,43.50
2019-04-21T10:31:09.052Z,42.60
2019-04-21T10:33:40.177Z,42.50
2019-04-21T10:36:15.096Z,43.30
2019-04-21T10:38:51.568Z,43.30
2019-04-21T10:41:21.648Z,42.50
2019-04-21T10:43:53.375Z,42.50
2019-04-21T10:46:28.766Z,42.20
2019-04-21T10:49:01.590Z,42.00
2019-04-21T10:51:35.166Z,42.40
2019-04-21T10:54:08.200Z,41.20
2019-04-21T10:56:43.817Z,40.70
2019-04-21T10:59:14.716Z,40.70
2019-04-21T11:01:47.078Z,40.90
2019-04-21T11:04:29.645Z,40.50
2019-04-21T11:07:06.795Z,39.70
2019-04-21T11:09:31.847Z,40.00
2019-04-21T11:12:02.364Z,40.50
2019-04-21T11:14:33.802Z,39.70
2019-04-21T11:17:06.060Z,39.40
2019-04-21T11:19:43.018Z,41.90
2019-04-21T11:22:17.051Z,40.30
2019-04-21T11:24:51.136Z,40.60
2019-04-21T11:27:22.632Z,39.80
2019-04-21T11:29:54.177Z,39.00
2019-04-21T11:32:25.266Z,38.80
2019-04-21T11:34:57.021Z,38.20
2019-04-21T11:37:30.527Z,38.10
2019-04-21T11:40:08.554Z,38.10
2019-04-21T11:42:37.857Z,37.70
2019-04-21T11:45:10.504Z,38.50
2019-04-21T11:47:46.079Z,37.30
2019-04-21T11:50:18.952Z,38.80
2019-04-21T11:52:52.821Z,39.30
2019-04-21T11:55:36.753Z,38.60
2019-04-21T11:58:03.538Z,37.30
2019-04-21T12:00:35.843Z,38.00
2019-04-21T12:03:06.018Z,37.90
2019-04-21T12:05:39.500Z,38.40
2019-04-21T12:08:23.342Z,38.60
2019-04-21T12:10:45.118Z,38.60
2019-04-21T12:13:20.391Z,37.90
2019-04-21T12:15:52.711Z,37.70
2019-04-21T12:18:36.714Z,37.80
2019-04-21T12:21:07.825Z,37.70
2019-04-21T12:23:40.450Z,37.00
2019-04-21T12:26:11.949Z,38.40
2019-04-21T12:28:45.874Z,38.50
2019-04-21T12:31:21.215Z,37.30
2019-04-21T12:33:52.388Z,38.10
2019-04-21T12:39:12.875Z,37.80
2019-04-21T12:41:48.889Z,37.90
2019-04-21T12:44:24.315Z,38.70
2019-04-21T12:46:58.111Z,38.40
2019-04-21T12:49:33.602Z,38.30
2019-04-21T12:52:07.535Z,39.40
2019-04-21T12:54:42.103Z,38.50
2019-04-21T12:57:13.737Z,38.20
2019-04-21T12:59:46.662Z,39.40
2019-04-21T13:02:19.881Z,39.30
2019-04-21T13:07:43.621Z,38.40
2019-04-21T13:10:20.225Z,38.00
2019-04-21T13:12:54.263Z,37.10
2019-04-21T13:15:27.352Z,37.90
2019-04-21T13:17:58.491Z,38.40
2019-04-21T13:20:36.116Z,37.20
2019-04-21T13:23:08.113Z,36.80
2019-04-21T13:25:39.358Z,37.60
2019-04-21T13:28:10.452Z,37.10
2019-04-21T13:30:44.881Z,37.90
2019-04-21T13:33:16.828Z,37.30
2019-04-21T13:35:50.915Z,37.30
2019-04-21T13:38:34.579Z,37.00
2019-04-21T13:41:32.750Z,37.00
2019-04-21T13:43:53.024Z,36.30
2019-04-21T13:46:27.098Z,36.30
2019-04-21T13:49:01.316Z,36.20
2019-04-21T13:51:34.557Z,36.90
2019-04-21T13:54:07.910Z,37.50
2019-04-21T13:56:42.290Z,37.80
2019-04-21T13:59:15.978Z,37.20
2019-04-21T14:01:47.878Z,38.60
2019-04-21T14:04:18.057Z,37.80
2019-04-21T14:06:50.070Z,37.80
2019-04-21T14:09:34.220Z,38.10
2019-04-21T14:11:57.108Z,37.60
2019-04-21T14:14:34.452Z,36.90
2019-04-21T14:17:08.581Z,38.20
2019-04-21T14:19:39.754Z,36.50
2019-04-21T14:22:11.908Z,38.30
2019-04-21T14:24:43.782Z,38.10
2019-04-21T14:27:16.468Z,37.80
2019-04-21T14:29:49.351Z,38.50
2019-04-21T14:32:22.432Z,37.90
2019-04-21T14:34:54.183Z,38.70
2019-04-21T14:37:26.584Z,38.50
2019-04-21T14:40:06.738Z,38.30
2019-04-21T14:42:33.918Z,38.70
2019-04-21T14:45:05.126Z,38.80
2019-04-21T14:47:40.042Z,38.90
2019-04-21T14:50:15.524Z,38.50
2019-04-21T14:52:46.860Z,39.50
2019-04-21T14:55:20.803Z,39.70
2019-04-21T14:57:51.557Z,37.50
2019-04-21T15:00:22.892Z,38.90
2019-04-21T15:02:57.916Z,39.90
2019-04-21T15:05:31.331Z,39.30
2019-04-21T15:08:04.627Z,39.20
2019-04-21T15:10:35.195Z,40.40
2019-04-21T15:13:07.737Z,40.30
2019-04-21T15:15:39.436Z,40.60
2019-04-21T15:18:10.505Z,41.20
2019-04-21T15:20:47.322Z,41.00
2019-04-21T15:23:25.237Z,41.70
2019-04-21T15:25:57.086Z,41.10
2019-04-21T15:28:33.616Z,41.80
2019-04-21T15:31:03.145Z,41.50
2019-04-21T15:33:35.043Z,42.90
2019-04-21T15:36:07.113Z,41.70
2019-04-21T15:38:40.138Z,42.60
2019-04-21T15:41:12.746Z,42.70
2019-04-21T15:43:46.728Z,42.30
2019-04-21T15:46:18.525Z,43.50
2019-04-21T15:48:55.139Z,43.90
2019-04-21T15:51:29.639Z,43.10
2019-04-21T15:54:02.620Z,42.70
2019-04-21T15:56:42.684Z,42.70
2019-04-21T15:59:17.220Z,43.20
2019-04-21T16:01:52.501Z,42.90
2019-04-21T16:04:25.445Z,43.50
2019-04-21T16:06:57.542Z,44.40
2019-04-21T16:09:31.197Z,45.20
2019-04-21T16:12:09.545Z,44.10
2019-04-21T16:14:40.804Z,44.90
2019-04-21T16:17:15.170Z,44.40
2019-04-21T16:19:48.041Z,45.30
2019-04-21T16:22:20.972Z,45.40
2019-04-21T16:24:54.628Z,45.20
2019-04-21T16:27:28.035Z,45.40
2019-04-21T16:30:00.007Z,45.30
2019-04-21T16:32:32.200Z,45.90
2019-04-21T16:35:10.473Z,45.30
2019-04-21T16:37:39.522Z,45.50
2019-04-21T16:40:13.794Z,44.90
2019-04-21T16:42:46.324Z,45.10
2019-04-21T16:45:23.081Z,45.50
2019-04-21T16:47:57.509Z,46.30
2019-04-21T16:50:28.174Z,46.30
2019-04-21T16:53:01.776Z,46.40
2019-04-21T16:55:37.126Z,46.10
2019-04-21T16:58:15.278Z,47.00
2019-04-21T17:00:55.649Z,46.80
2019-04-21T17:03:18.860Z,46.40
2019-04-21T17:05:52.015Z,47.00
2019-04-21T17:08:24.051Z,47.10
2019-04-21T17:11:02.925Z,47.60
2019-04-21T17:13:29.645Z,47.80
2019-04-21T17:16:29.599Z,47.50
2019-04-21T17:18:48.867Z,47.70
2019-04-21T17:21:08.750Z,48.30
2019-04-21T17:24:01.998Z,48.40
2019-04-21T17:26:39.042Z,48.60
2019-04-21T17:29:10.438Z,48.90
2019-04-21T17:31:43.636Z,48.90
2019-04-21T17:34:20.099Z,49.20
2019-04-21T17:36:48.737Z,49.40
2019-04-21T17:39:24.910Z,49.00
2019-04-21T17:42:07.031Z,49.40
2019-04-21T17:44:29.703Z,49.60
2019-04-21T17:47:05.545Z,49.50
2019-04-21T17:52:23.895Z,50.40
2019-04-21T17:55:07.605Z,50.90
2019-04-21T17:57:50.090Z,51.10
2019-04-21T18:00:42.037Z,50.90
2019-04-21T18:02:53.205Z,51.10
2019-04-21T18:05:36.298Z,51.60
2019-04-21T18:08:01.314Z,52.40
2019-04-21T18:10:37.323Z,52.60
2019-04-21T18:13:01.409Z,53.20
2019-04-21T18:15:43.566Z,53.80
2019-04-21T18:18:00.659Z,54.20
2019-04-21T18:20:45.739Z,54.40
2019-04-21T18:23:42.084Z,54.40
2019-04-21T18:26:09.993Z,55.00
2019-04-21T18:28:38.712Z,55.30
2019-04-21T18:31:12.272Z,55.70
2019-04-21T18:33:47.872Z,56.10
2019-04-21T18:36:29.268Z,56.60
2019-04-21T18:39:12.278Z,57.30
2019-04-21T18:41:36.436Z,57.50
2019-04-21T18:44:31.954Z,58.20
2019-04-21T18:47:09.559Z,58.20
2019-04-21T18:52:16.094Z,58.90
2019-04-21T18:54:57.576Z,59.60
2019-04-21T18:57:22.821Z,59.70
2019-04-21T18:59:47.721Z,59.80
2019-04-21T19:02:21.812Z,60.10
2019-04-21T19:04:55.867Z,60.20
2019-04-21T19:07:48.668Z,60.40
2019-04-21T19:10:29.678Z,61.20
2019-04-21T19:13:20.319Z,61.40
2019-04-21T19:15:27.750Z,61.40
2019-04-21T19:18:28.286Z,61.60
2019-04-21T19:20:32.852Z,61.90
2019-04-21T19:23:05.574Z,62.20
2019-04-21T19:25:41.308Z,62.30
2019-04-21T19:28:09.730Z,62.50
2019-04-21T19:30:59.001Z,62.70
2019-04-21T19:33:24.348Z,62.90
2019-04-21T19:35:47.563Z,63.10
2019-04-21T19:38:30.191Z,63.10
2019-04-21T19:41:10.335Z,63.00
2019-04-21T19:43:45.975Z,63.30
2019-04-21T19:46:19.078Z,63.50
2019-04-21T19:49:01.224Z,63.80
2019-04-21T19:51:24.871Z,64.20
2019-04-21T19:53:53.743Z,64.30
2019-04-21T19:56:19.597Z,64.20
2019-04-21T19:58:52.963Z,64.20
2019-04-21T20:01:25.477Z,64.30
2019-04-21T20:04:00.801Z,64.50
2019-04-21T20:06:45.422Z,64.60
2019-04-21T20:09:21.875Z,64.80
2019-04-21T20:11:55.030Z,65.00
2019-04-21T20:16:59.417Z,65.20
2019-04-21T20:19:24.761Z,65.40
2019-04-21T20:21:58.993Z,65.40
2019-04-21T20:24:36.424Z,65.50
2019-04-21T20:29:57.571Z,65.40
2019-04-21T20:32:36.702Z,65.70
2019-04-21T20:35:07.064Z,65.80
2019-04-21T20:37:37.839Z,66.10
2019-04-21T20:40:02.235Z,66.20
2019-04-21T20:42:43.593Z,66.30
2019-04-21T20:47:42.424Z,66.60
2019-04-21T20:50:23.488Z,66.60
2019-04-21T20:53:06.047Z,66.90
2019-04-21T20:55:28.751Z,67.10
2019-04-21T20:57:58.256Z,67.30
2019-04-21T21:00:50.777Z,67.40
2019-04-21T21:03:20.955Z,67.60
2019-04-21T21:05:45.128Z,67.60
2019-04-21T21:08:32.744Z,67.70
2019-04-21T21:10:53.231Z,68.00
2019-04-21T21:13:31.978Z,68.20
2019-04-21T21:16:13.772Z,68.50
2019-04-21T21:18:59.587Z,68.80
2019-04-21T21:21:11.132Z,69.10
2019-04-21T21:23:48.024Z,69.10
2019-04-21T21:26:20.106Z,69.60
2019-04-21T21:28:52.031Z,69.40
2019-04-21T21:31:31.273Z,69.50
2019-04-21T21:34:11.888Z,69.60
2019-04-21T21:36:36.495Z,69.70
2019-04-21T21:39:08.692Z,69.90
2019-04-21T21:41:31.790Z,69.80
2019-04-21T21:44:05.805Z,70.00
2019-04-21T21:46:45.633Z,70.10
2019-04-21T21:49:20.722Z,70.10
2019-04-21T21:51:47.412Z,70.20
2019-04-21T21:54:11.707Z,70.40
2019-04-21T21:56:48.545Z,70.90
2019-04-21T21:59:24.389Z,71.10
2019-04-21T22:01:54.892Z,71.30
2019-04-21T22:04:30.718Z,71.30
2019-04-21T22:07:04.467Z,71.30
2019-04-21T22:09:30.384Z,71.40
2019-04-21T22:12:06.280Z,71.40
2019-04-21T22:14:41.690Z,71.50
2019-04-21T22:17:24.729Z,71.50
2019-04-21T22:20:13.463Z,71.60
2019-04-21T22:22:31.274Z,71.60
2019-04-21T22:25:02.400Z,71.60
2019-04-21T22:27:25.334Z,71.70
2019-04-21T22:30:01.373Z,71.80
2019-04-21T22:32:33.152Z,72.20
2019-04-21T22:35:07.570Z,72.30
2019-04-21T22:37:47.410Z,72.30
2019-04-21T22:40:20.545Z,72.30
2019-04-21T22:42:54.986Z,72.50
2019-04-21T22:45:19.620Z,72.60
2019-04-21T22:47:56.269Z,72.80
2019-04-21T22:50:30.750Z,72.90
2019-04-21T22:53:07.513Z,72.90
2019-04-21T22:55:35.302Z,73.20
2019-04-21T22:58:07.666Z,73.40
2019-04-21T23:00:46.431Z,73.40
2019-04-21T23:03:16.405Z,73.50
2019-04-21T23:05:46.970Z,73.60
2019-04-21T23:08:27.944Z,73.70
2019-04-21T23:10:59.260Z,73.70
2019-04-21T23:13:25.978Z,73.80
2019-04-21T23:15:58.794Z,73.50
2019-04-21T23:18:42.207Z,73.60
2019-04-21T23:21:16.343Z,73.80
2019-04-21T23:24:03.184Z,74.00
2019-04-21T23:26:34.850Z,74.20
2019-04-21T23:29:10.953Z,74.60
2019-04-21T23:31:42.739Z,74.70
2019-04-21T23:33:54.619Z,74.80
2019-04-21T23:36:29.675Z,74.90
2019-04-21T23:38:58.490Z,75.40
2019-04-21T23:41:36.063Z,75.20
2019-04-21T23:44:04.500Z,74.10
2019-04-21T23:46:35.258Z,74.10
2019-04-21T23:49:18.566Z,74.40
2019-04-21T23:54:15.486Z,74.60
2019-04-21T23:56:49.498Z,74.80
2019-04-21T23:59:20.807Z,74.80
